Time;durP1;ratioP1;P1;durP2;ratioP2;P2;SDS_P1;SDS_P2;PMS_P1;PMS_P2;Temp;Humidity;BMP_temperature;BMP_pressure;BME280_temperature;BME280_humidity;BME280_pressure;Samples;Min_cycle;Max_cycle;Signal;HPM_P1;HPM_P2
2021/08/07 00:01:07;;;;;;;;;;;;;;;22.13;46.77;98217.81;5072695;28;19967;-79
2021/08/07 00:03:33;;;;;;;;;;;;;;;22.13;46.75;98223.25;5072563;28;20011;-79
2021/08/07 00:05:58;;;;;;;;;;;;;;;22.13;46.73;98228.69;5071549;28;19923;-79
2021/08/07 00:08:23;;;;;;;;;;;;;;;22.10;46.94;98223.22;5071140;28;19917;-79
2021/08/07 00:10:49;;;;;;;;;;;;;;;22.04;47.12;98225.47;5070647;28;19983;-79
2021/08/07 00:13:14;;;;;;;;;;;;;;;22.02;47.04;98225.06;5071199;28;19917;-79
2021/08/07 00:15:39;;;;;;;;;;;;;;;22.00;47.14;98230.09;5072565;28;20368;-79
2021/08/07 00:18:05;;;;;;;;;;;;;;;21.96;47.23;98227.34;5072565;28;19916;-79
2021/08/07 00:20:30;;;;;;;;;;;;;;;21.93;47.11;98221.88;5071103;28;19920;-79
2021/08/07 00:22:56;;;;;;;;;;;;;;;21.92;47.08;98215.63;5071087;28;20315;-79
2021/08/07 00:25:21;;;;;;;;;;;;;;;21.90;47.11;98223.38;5070895;28;19916;-79
2021/08/07 00:27:46;;;;;;;;;;;;;;;21.86;47.17;98211.66;5070624;28;19984;-79
2021/08/07 00:30:12;;;;;;;;;;;;;;;21.83;47.17;98212.41;5072075;28;19928;-79
2021/08/07 00:32:38;;;;;;;;;;;;;;;21.82;47.15;98224.47;5072290;28;20410;-79
2021/08/07 00:35:03;;;;;;;;;;;;;;;21.82;47.04;98221.75;5070765;28;20417;-79
2021/08/07 00:37:29;;;;;;;;;;;;;;;21.80;46.97;98224.84;5072286;28;19916;-79
2021/08/07 00:39:54;;;;;;;;;;;;;;;21.76;47.17;98226.72;5072256;28;20288;-79
2021/08/07 00:42:19;;;;;;;;;;;;;;;21.73;46.99;98224.75;5072304;28;20384;-79
2021/08/07 00:44:44;;;;;;;;;;;;;;;21.61;47.25;98225.00;5072349;28;20378;-78
2021/08/07 00:47:10;;;;;;;;;;;;;;;21.53;47.43;98234.97;5070424;28;19923;-79
2021/08/07 00:49:35;;;;;;;;;;;;;;;21.46;47.51;98243.81;5072326;28;19923;-78
2021/08/07 00:52:01;;;;;;;;;;;;;;;21.43;47.49;98247.25;5071543;28;19922;-80
2021/08/07 00:54:26;;;;;;;;;;;;;;;21.41;47.40;98239.47;5070600;28;20387;-79
2021/08/07 00:56:51;;;;;;;;;;;;;;;21.40;47.30;98237.91;5072194;28;19917;-78
2021/08/07 00:59:16;;;;;;;;;;;;;;;21.38;47.30;98234.00;5070334;28;19951;-78
2021/08/07 01:01:48;;;;;;;;;;;;;;;21.38;47.09;98236.72;5071643;28;20452;-78
2021/08/07 01:04:17;;;;;;;;;;;;;;;21.37;47.10;98232.41;5070296;28;20437;-78
2021/08/07 01:06:48;;;;;;;;;;;;;;;21.35;47.11;98230.06;5070404;28;20023;-78
2021/08/07 01:09:16;;;;;;;;;;;;;;;21.35;47.49;98223.84;5071567;28;19916;-78
2021/08/07 01:11:54;;;;;;;;;;;;;;;21.35;47.48;98221.13;5070476;28;20402;-78
2021/08/07 01:14:21;;;;;;;;;;;;;;;21.33;47.42;98218.78;5070287;28;20057;-78
2021/08/07 01:16:47;;;;;;;;;;;;;;;21.35;47.23;98226.56;5070376;28;20033;-78
2021/08/07 01:19:16;;;;;;;;;;;;;;;21.35;47.26;98219.19;5071424;28;20449;-78
2021/08/07 01:22:02;;;;;;;;;;;;;;;21.35;47.27;98223.84;5070113;28;19917;-78
2021/08/07 01:24:41;;;;;;;;;;;;;;;21.36;47.29;98214.53;5069459;28;20387;-78
2021/08/07 01:27:16;;;;;;;;;;;;;;;21.37;47.26;98210.66;5071439;28;19928;-78
2021/08/07 01:29:41;;;;;;;;;;;;;;;21.37;47.41;98207.94;5070265;28;19959;-78
2021/08/07 01:32:06;;;;;;;;;;;;;;;21.36;46.97;98209.09;5071298;28;19974;-78
2021/08/07 01:34:32;;;;;;;;;;;;;;;21.34;47.07;98208.69;5070145;28;20379;-78
2021/08/07 01:36:58;;;;;;;;;;;;;;;21.35;47.02;98202.09;5070258;28;19923;-78
2021/08/07 01:39:23;;;;;;;;;;;;;;;21.35;47.03;98205.59;5070011;28;20010;-78
2021/08/07 01:41:48;;;;;;;;;;;;;;;21.36;46.79;98211.81;5070127;28;20375;-78
2021/08/07 01:44:14;;;;;;;;;;;;;;;21.35;46.90;98218.41;5071576;28;19917;-78
2021/08/07 01:46:47;;;;;;;;;;;;;;;21.35;47.09;98215.69;5071217;28;19959;-78
2021/08/07 01:49:14;;;;;;;;;;;;;;;21.31;46.85;98214.84;5069876;28;19959;-79
2021/08/07 01:51:53;;;;;;;;;;;;;;;21.32;46.96;98216.44;5070201;28;19917;-78
2021/08/07 01:54:21;;;;;;;;;;;;;;;21.31;46.86;98217.56;5070827;28;19921;-78
2021/08/07 01:56:47;;;;;;;;;;;;;;;21.29;46.58;98220.66;5070099;28;19917;-78
2021/08/07 01:59:18;;;;;;;;;;;;;;;21.28;46.51;98214.44;5069840;28;19920;-78
2021/08/07 02:01:45;;;;;;;;;;;;;;;21.30;46.39;98219.53;5069992;28;20444;-78
2021/08/07 02:04:11;;;;;;;;;;;;;;;21.30;46.41;98221.44;5069800;28;19931;-78
2021/08/07 02:06:38;;;;;;;;;;;;;;;21.28;46.06;98222.59;5071415;28;19917;-78
2021/08/07 02:09:03;;;;;;;;;;;;;;;21.27;46.34;98223.75;5069645;28;19927;-78
2021/08/07 02:11:29;;;;;;;;;;;;;;;21.29;46.08;98223.41;5069952;28;20372;-78
2021/08/07 02:13:55;;;;;;;;;;;;;;;21.32;46.08;98232.75;5071504;28;19916;-79
2021/08/07 02:16:21;;;;;;;;;;;;;;;21.33;46.01;98228.88;5069856;28;19917;-80
2021/08/07 02:18:46;;;;;;;;;;;;;;;21.34;45.94;98233.19;5069799;28;20080;-80
2021/08/07 02:21:12;;;;;;;;;;;;;;;21.31;45.95;98231.19;5069621;28;20023;-78
2021/08/07 02:23:37;;;;;;;;;;;;;;;21.32;46.04;98235.47;5071085;28;19917;-79
2021/08/07 02:26:04;;;;;;;;;;;;;;;21.31;45.87;98237.38;5069663;28;20402;-79
2021/08/07 02:28:30;;;;;;;;;;;;;;;21.31;46.00;98236.63;5069947;28;19917;-79
2021/08/07 02:30:57;;;;;;;;;;;;;;;21.29;46.16;98234.28;5069779;28;19951;-78
2021/08/07 02:33:23;;;;;;;;;;;;;;;21.28;46.16;98241.63;5069556;28;20213;-78
2021/08/07 02:35:50;;;;;;;;;;;;;;;21.28;46.22;98230.75;5073281;28;19969;-78
2021/08/07 02:38:16;;;;;;;;;;;;;;;21.28;46.16;98235.41;5073112;28;19916;-78
2021/08/07 02:40:42;;;;;;;;;;;;;;;21.30;46.05;98240.47;5073267;28;19923;-79
2021/08/07 02:43:08;;;;;;;;;;;;;;;21.30;46.18;98235.03;5073861;28;20304;-79
2021/08/07 02:45:34;;;;;;;;;;;;;;;21.33;46.07;98235.09;5072709;28;20001;-79
2021/08/07 02:47:59;;;;;;;;;;;;;;;21.37;46.25;98237.84;5072999;28;19917;-78
2021/08/07 02:50:25;;;;;;;;;;;;;;;21.39;46.03;98251.88;5072817;28;20015;-79
2021/08/07 02:52:51;;;;;;;;;;;;;;;21.39;46.09;98247.22;5072972;28;19923;-79
2021/08/07 02:55:16;;;;;;;;;;;;;;;21.40;45.93;98239.84;5074101;28;19944;-79
2021/08/07 02:57:41;;;;;;;;;;;;;;;21.36;46.12;98239.81;5073821;28;19917;-79
2021/08/07 03:00:07;;;;;;;;;;;;;;;21.38;46.01;98244.88;5072616;28;19924;-78
2021/08/07 03:02:32;;;;;;;;;;;;;;;21.37;45.97;98249.53;5074048;28;20015;-79
2021/08/07 03:04:57;;;;;;;;;;;;;;;21.35;46.09;98242.88;5072808;28;19920;-77
2021/08/07 03:07:22;;;;;;;;;;;;;;;21.34;46.04;98246.78;5072473;28;19920;-79
2021/08/07 03:09:48;;;;;;;;;;;;;;;21.33;46.03;98242.47;5073726;28;19920;-79
2021/08/07 03:12:15;;;;;;;;;;;;;;;21.34;45.94;98257.66;5072347;28;20023;-79
2021/08/07 03:14:40;;;;;;;;;;;;;;;21.35;46.05;98253.75;5072526;28;19986;-79
2021/08/07 03:17:05;;;;;;;;;;;;;;;21.35;46.09;98249.13;5073232;28;20383;-79
2021/08/07 03:19:30;;;;;;;;;;;;;;;21.36;45.93;98258.03;5072472;28;19916;-79
2021/08/07 03:21:56;;;;;;;;;;;;;;;21.37;45.93;98259.63;5072524;28;20417;-79
2021/08/07 03:24:21;;;;;;;;;;;;;;;21.38;45.66;98261.19;5073251;28;20281;-79
2021/08/07 03:26:47;;;;;;;;;;;;;;;21.39;45.69;98265.47;5071734;28;19921;-79
2021/08/07 03:29:12;;;;;;;;;;;;;;;21.42;45.67;98262.00;5073449;28;20331;-79
2021/08/07 03:31:37;;;;;;;;;;;;;;;21.44;45.63;98265.94;5073503;28;19916;-79
2021/08/07 03:34:02;;;;;;;;;;;;;;;21.50;45.41;98266.41;5073462;28;19917;-78
2021/08/07 03:36:28;;;;;;;;;;;;;;;21.67;45.21;98264.31;5071757;28;19917;-79
2021/08/07 03:38:53;;;;;;;;;;;;;;;21.86;44.83;98271.53;5072156;28;19916;-79
2021/08/07 03:41:18;;;;;;;;;;;;;;;22.07;44.37;98281.91;5073232;28;20415;-79
2021/08/07 03:43:44;;;;;;;;;;;;;;;22.32;43.92;98286.84;5072969;28;19916;-79
2021/08/07 03:46:09;;;;;;;;;;;;;;;22.61;43.25;98287.16;5071637;28;19956;-79
2021/08/07 03:48:34;;;;;;;;;;;;;;;22.89;42.55;98300.25;5071880;28;19916;-79
2021/08/07 03:50:59;;;;;;;;;;;;;;;23.18;42.25;98293.09;5073080;28;19916;-80
2021/08/07 03:53:25;;;;;;;;;;;;;;;23.49;41.20;98296.41;5071517;28;20361;-79
2021/08/07 03:55:50;;;;;;;;;;;;;;;23.78;40.94;98293.81;5071909;28;19924;-79
2021/08/07 03:58:15;;;;;;;;;;;;;;;24.01;40.11;98302.91;5071374;28;20445;-80
2021/08/07 04:00:41;;;;;;;;;;;;;;;24.22;39.90;98311.19;5071638;28;19917;-79
2021/08/07 04:03:06;;;;;;;;;;;;;;;24.50;39.04;98306.97;5071039;28;20403;-77
2021/08/07 04:05:33;;;;;;;;;;;;;;;24.69;38.84;98308.56;5072810;28;19916;-79
2021/08/07 04:08:02;;;;;;;;;;;;;;;24.91;38.76;98314.84;5071124;28;19966;-80
2021/08/07 04:10:28;;;;;;;;;;;;;;;25.20;38.27;98314.81;5072817;28;19916;-80
2021/08/07 04:12:53;;;;;;;;;;;;;;;25.54;37.52;98333.56;5071563;28;19917;-80
2021/08/07 04:15:19;;;;;;;;;;;;;;;25.80;36.62;98336.25;5071237;28;19923;-80
2021/08/07 04:17:44;;;;;;;;;;;;;;;26.03;36.26;98333.81;5071396;28;19917;-78
2021/08/07 04:20:10;;;;;;;;;;;;;;;26.20;35.97;98343.16;5072112;28;19917;-77
2021/08/07 04:22:35;;;;;;;;;;;;;;;26.37;35.72;98347.00;5072668;28;19920;-78
2021/08/07 04:25:01;;;;;;;;;;;;;;;26.59;35.21;98343.38;5071211;28;19917;-78
2021/08/07 04:27:26;;;;;;;;;;;;;;;26.78;34.68;98353.84;5070663;28;19924;-78
2021/08/07 04:29:51;;;;;;;;;;;;;;;27.03;34.63;98361.09;5071147;28;20391;-78
2021/08/07 04:32:17;;;;;;;;;;;;;;;27.17;34.40;98373.91;5070760;28;19963;-78
2021/08/07 04:34:42;;;;;;;;;;;;;;;27.40;34.16;98378.06;5070779;28;19977;-78
2021/08/07 04:37:08;;;;;;;;;;;;;;;27.67;33.70;98380.19;5070643;28;19967;-78
2021/08/07 04:39:33;;;;;;;;;;;;;;;27.91;33.40;98387.38;5070489;28;20379;-80
2021/08/07 04:41:58;;;;;;;;;;;;;;;28.13;32.94;98402.91;5070770;28;19960;-79
2021/08/07 04:44:23;;;;;;;;;;;;;;;28.21;32.67;98410.63;5070478;28;19917;-80
2021/08/07 04:46:49;;;;;;;;;;;;;;;28.34;32.75;98412.84;5070720;28;19975;-80
2021/08/07 04:49:14;;;;;;;;;;;;;;;28.58;32.26;98413.72;5072076;28;19974;-79
2021/08/07 04:51:39;;;;;;;;;;;;;;;28.73;31.84;98426.13;5070632;28;19916;-80
2021/08/07 04:54:05;;;;;;;;;;;;;;;28.75;31.88;98428.44;5071678;28;19917;-79
2021/08/07 04:56:30;;;;;;;;;;;;;;;28.87;31.74;98427.13;5069851;28;20280;-80
2021/08/07 04:58:56;;;;;;;;;;;;;;;28.89;31.91;98431.00;5070595;28;20310;-80
2021/08/07 05:01:21;;;;;;;;;;;;;;;29.06;31.46;98437.44;5070476;28;19917;-80
2021/08/07 05:03:46;;;;;;;;;;;;;;;29.21;31.26;98451.78;5070531;28;20291;-80
2021/08/07 05:06:12;;;;;;;;;;;;;;;29.19;31.02;98450.63;5070089;28;19920;-80
2021/08/07 05:08:37;;;;;;;;;;;;;;;29.24;31.16;98448.16;5070471;28;20003;-79
2021/08/07 05:11:03;;;;;;;;;;;;;;;29.40;30.96;98457.78;5072123;28;20368;-79
2021/08/07 05:13:28;;;;;;;;;;;;;;;29.58;31.13;98460.25;5071147;28;19916;-80
2021/08/07 05:15:54;;;;;;;;;;;;;;;29.71;30.68;98458.47;5071559;28;20364;-79
2021/08/07 05:18:19;;;;;;;;;;;;;;;29.92;30.61;98467.59;5071309;28;19917;-79
2021/08/07 05:20:44;;;;;;;;;;;;;;;30.01;30.41;98473.31;5070179;28;19917;-79
2021/08/07 05:23:09;;;;;;;;;;;;;;;30.17;29.68;98475.38;5069939;28;19974;-81
2021/08/07 05:25:35;;;;;;;;;;;;;;;30.38;29.65;98476.16;5070332;28;19916;-80
2021/08/07 05:28:00;;;;;;;;;;;;;;;30.50;29.31;98474.78;5071643;28;20415;-79
2021/08/07 05:30:25;;;;;;;;;;;;;;;30.58;29.08;98470.66;5071229;28;19917;-78
2021/08/07 05:32:50;;;;;;;;;;;;;;;30.79;29.02;98477.72;5070128;28;20304;-79
2021/08/07 05:35:16;;;;;;;;;;;;;;;30.94;29.14;98478.16;5070039;28;20376;-79
2021/08/07 05:37:42;;;;;;;;;;;;;;;31.06;28.24;98481.47;5070057;28;20058;-78
2021/08/07 05:40:08;;;;;;;;;;;;;;;31.03;28.48;98493.38;5069668;28;19917;-79
2021/08/07 05:42:34;;;;;;;;;;;;;;;30.98;28.59;98491.91;5071172;28;19916;-79
2021/08/07 05:44:59;;;;;;;;;;;;;;;31.02;28.84;98492.59;5069717;28;19924;-79
2021/08/07 05:47:24;;;;;;;;;;;;;;;30.95;28.91;98490.00;5070753;28;19922;-79
2021/08/07 05:49:49;;;;;;;;;;;;;;;30.91;28.38;98484.56;5070017;28;19967;-79
2021/08/07 05:52:15;;;;;;;;;;;;;;;30.99;28.84;98487.94;5069742;28;20007;-79
2021/08/07 05:54:40;;;;;;;;;;;;;;;30.84;28.81;98490.22;5070088;28;19916;-78
2021/08/07 05:57:05;;;;;;;;;;;;;;;30.93;28.39;98487.69;5069975;28;19916;-79
2021/08/07 05:59:30;;;;;;;;;;;;;;;30.97;28.86;98491.13;5069637;28;20458;-79
2021/08/07 06:01:56;;;;;;;;;;;;;;;31.00;28.38;98497.78;5069667;28;19916;-79
2021/08/07 06:04:21;;;;;;;;;;;;;;;31.01;28.74;98502.09;5069254;28;19956;-79
2021/08/07 06:06:46;;;;;;;;;;;;;;;31.13;28.20;98509.72;5069874;28;19917;-79
2021/08/07 06:09:11;;;;;;;;;;;;;;;31.15;28.24;98506.53;5070476;28;20395;-79
2021/08/07 06:11:37;;;;;;;;;;;;;;;31.25;28.25;98502.78;5073702;28;20007;-79
2021/08/07 06:14:02;;;;;;;;;;;;;;;31.40;27.90;98513.50;5073691;28;19928;-79
2021/08/07 06:16:27;;;;;;;;;;;;;;;31.49;27.85;98515.66;5074375;28;19916;-79
2021/08/07 06:18:53;;;;;;;;;;;;;;;31.68;27.86;98514.81;5073381;28;19920;-79
2021/08/07 06:21:18;;;;;;;;;;;;;;;31.82;27.76;98529.47;5073290;28;19924;-79
2021/08/07 06:23:43;;;;;;;;;;;;;;;31.73;27.38;98525.34;5073452;28;20156;-79
2021/08/07 06:26:09;;;;;;;;;;;;;;;31.71;27.49;98540.81;5073388;28;19928;-79
2021/08/07 06:28:34;;;;;;;;;;;;;;;31.82;27.90;98535.00;5074380;28;20410;-79
2021/08/07 06:31:00;;;;;;;;;;;;;;;31.80;27.06;98540.19;5073304;28;20382;-79
2021/08/07 06:33:25;;;;;;;;;;;;;;;31.74;27.38;98540.72;5073131;28;20316;-79
2021/08/07 06:35:50;;;;;;;;;;;;;;;31.74;27.32;98535.19;5073318;28;19920;-79
2021/08/07 06:38:15;;;;;;;;;;;;;;;31.71;27.99;98535.28;5074019;28;20413;-79
2021/08/07 06:40:41;;;;;;;;;;;;;;;31.68;27.76;98533.41;5072974;28;19970;-79
2021/08/07 06:43:06;;;;;;;;;;;;;;;31.64;27.36;98535.41;5073169;28;20376;-79
2021/08/07 06:45:31;;;;;;;;;;;;;;;31.62;27.46;98530.34;5072704;28;20129;-79
2021/08/07 06:47:57;;;;;;;;;;;;;;;31.57;27.81;98531.63;5074286;28;20292;-80
2021/08/07 06:50:22;;;;;;;;;;;;;;;31.55;27.77;98528.50;5072831;28;19921;-79
2021/08/07 06:52:47;;;;;;;;;;;;;;;31.52;27.57;98531.34;5072818;28;19923;-79
2021/08/07 06:55:13;;;;;;;;;;;;;;;31.44;27.60;98531.53;5072991;28;19957;-79
2021/08/07 06:57:40;;;;;;;;;;;;;;;31.44;27.43;98530.75;5072963;28;19950;-80
2021/08/07 07:00:08;;;;;;;;;;;;;;;31.43;27.77;98527.22;5074372;28;19973;-79
2021/08/07 07:02:33;;;;;;;;;;;;;;;31.39;27.88;98531.28;5072824;28;19924;-79
2021/08/07 07:04:58;;;;;;;;;;;;;;;31.36;27.50;98527.38;5073430;28;19923;-80
2021/08/07 07:07:23;;;;;;;;;;;;;;;31.32;27.70;98525.91;5072477;28;20338;-80
2021/08/07 07:09:49;;;;;;;;;;;;;;;31.22;27.78;98534.00;5074161;28;19916;-78
2021/08/07 07:12:15;;;;;;;;;;;;;;;31.14;27.64;98536.16;5072615;28;19917;-80
2021/08/07 07:14:40;;;;;;;;;;;;;;;31.10;27.58;98535.47;5074083;28;19966;-80
2021/08/07 07:17:06;;;;;;;;;;;;;;;31.04;27.65;98537.16;5073755;28;19920;-80
2021/08/07 07:19:31;;;;;;;;;;;;;;;30.97;27.60;98540.06;5071722;28;19924;-80
2021/08/07 07:21:57;;;;;;;;;;;;;;;30.80;27.51;98542.75;5073652;28;19921;-80
2021/08/07 07:24:22;;;;;;;;;;;;;;;30.65;27.73;98542.28;5073357;28;19917;-80
2021/08/07 07:26:48;;;;;;;;;;;;;;;30.64;27.87;98540.72;5071732;28;19921;-80
2021/08/07 07:29:13;;;;;;;;;;;;;;;30.65;27.54;98547.00;5073139;28;19920;-80
2021/08/07 07:31:38;;;;;;;;;;;;;;;30.71;27.99;98550.81;5071861;28;19916;-80
2021/08/07 07:34:03;;;;;;;;;;;;;;;30.62;27.79;98556.16;5072109;28;20360;-80
2021/08/07 07:36:29;;;;;;;;;;;;;;;30.47;27.40;98555.63;5071818;28;19924;-80
2021/08/07 07:38:54;;;;;;;;;;;;;;;30.33;28.47;98557.44;5072014;28;20442;-80
2021/08/07 07:41:19;;;;;;;;;;;;;;;30.28;28.52;98557.13;5071793;28;19916;-79
2021/08/07 07:43:45;;;;;;;;;;;;;;;30.14;28.54;98553.44;5073122;28;19921;-80
2021/08/07 07:46:10;;;;;;;;;;;;;;;29.90;29.07;98558.19;5071755;28;19916;-80
2021/08/07 07:48:35;;;;;;;;;;;;;;;29.84;29.36;98570.84;5071491;28;19920;-80
2021/08/07 07:51:01;;;;;;;;;;;;;;;29.80;28.93;98570.91;5073024;28;19917;-80
2021/08/07 07:53:26;;;;;;;;;;;;;;;29.71;28.92;98563.19;5071486;28;19917;-79
2021/08/07 07:55:51;;;;;;;;;;;;;;;29.58;28.87;98573.22;5071624;28;19966;-79
2021/08/07 07:58:17;;;;;;;;;;;;;;;29.48;29.49;98572.19;5072477;28;19917;-80
2021/08/07 08:00:42;;;;;;;;;;;;;;;29.46;29.35;98573.78;5072473;28;20007;-80
2021/08/07 08:03:07;;;;;;;;;;;;;;;29.46;29.38;98565.53;5071553;28;19916;-79
2021/08/07 08:05:33;;;;;;;;;;;;;;;29.37;29.70;98563.31;5071180;28;20383;-79
2021/08/07 08:07:58;;;;;;;;;;;;;;;29.34;29.83;98578.66;5071252;28;19916;-80
2021/08/07 08:10:24;;;;;;;;;;;;;;;29.34;29.02;98572.38;5070914;28;19917;-78
2021/08/07 08:12:49;;;;;;;;;;;;;;;29.29;29.04;98568.09;5071308;28;19917;-79
2021/08/07 08:15:14;;;;;;;;;;;;;;;29.26;28.84;98570.88;5071239;28;19916;-80
2021/08/07 08:17:40;;;;;;;;;;;;;;;29.16;29.58;98567.88;5070988;28;19916;-79
2021/08/07 08:20:07;;;;;;;;;;;;;;;29.15;29.11;98560.00;5072330;28;20299;-80
2021/08/07 08:22:32;;;;;;;;;;;;;;;29.15;30.35;98563.56;5072071;28;19966;-80
2021/08/07 08:24:58;;;;;;;;;;;;;;;29.26;29.95;98562.63;5071082;28;19985;-81
2021/08/07 08:27:23;;;;;;;;;;;;;;;29.37;29.38;98566.81;5072112;28;20438;-80
2021/08/07 08:29:49;;;;;;;;;;;;;;;29.34;29.63;98566.88;5071002;28;19921;-80
2021/08/07 08:32:14;;;;;;;;;;;;;;;29.39;29.75;98569.16;5071867;28;20295;-81
2021/08/07 08:34:40;;;;;;;;;;;;;;;29.43;29.23;98566.34;5070713;28;19921;-80
2021/08/07 08:37:05;;;;;;;;;;;;;;;29.48;29.76;98566.66;5071834;28;19967;-81
2021/08/07 08:39:30;;;;;;;;;;;;;;;29.59;29.31;98562.97;5070573;28;19960;-79
2021/08/07 08:41:56;;;;;;;;;;;;;;;29.71;29.68;98546.63;5070877;28;20387;-80
2021/08/07 08:44:21;;;;;;;;;;;;;;;29.84;29.08;98555.06;5070435;28;19923;-80
2021/08/07 08:46:47;;;;;;;;;;;;;;;29.96;28.64;98556.50;5071587;28;19982;-79
2021/08/07 08:49:13;;;;;;;;;;;;;;;29.91;28.65;98553.47;5071680;28;20003;-79
2021/08/07 08:51:39;;;;;;;;;;;;;;;29.92;28.93;98542.00;5070325;28;19956;-79
2021/08/07 08:54:04;;;;;;;;;;;;;;;29.86;28.02;98547.19;5070576;28;19948;-79
2021/08/07 08:56:34;;;;;;;;;;;;;;;29.76;27.93;98542.63;5070302;28;20593;-78
2021/08/07 08:59:01;;;;;;;;;;;;;;;29.68;28.94;98544.72;5070185;28;19922;-78
2021/08/07 09:01:26;;;;;;;;;;;;;;;29.67;28.91;98539.63;5070181;28;19917;-79
2021/08/07 09:03:52;;;;;;;;;;;;;;;29.66;28.89;98541.59;5070456;28;19916;-78
2021/08/07 09:06:17;;;;;;;;;;;;;;;29.71;28.76;98543.88;5070336;28;20371;-78
2021/08/07 09:08:57;;;;;;;;;;;;;;;29.72;28.78;98541.91;5070180;28;19978;-78
2021/08/07 09:11:23;;;;;;;;;;;;;;;29.72;29.18;98539.13;5070050;28;19920;-79
2021/08/07 09:13:48;;;;;;;;;;;;;;;29.81;29.31;98544.91;5070336;28;19920;-79
2021/08/07 09:16:14;;;;;;;;;;;;;;;29.87;29.04;98536.94;5071690;28;20272;-79
2021/08/07 09:18:40;;;;;;;;;;;;;;;29.89;28.81;98533.75;5071297;28;19969;-79
2021/08/07 09:21:10;;;;;;;;;;;;;;;29.86;28.95;98527.13;5070164;28;20015;-79
2021/08/07 09:23:35;;;;;;;;;;;;;;;29.87;28.64;98523.94;5069983;28;19969;-79
2021/08/07 09:26:14;;;;;;;;;;;;;;;29.85;27.88;98536.59;5070009;28;19916;-79
2021/08/07 09:28:41;;;;;;;;;;;;;;;29.74;27.87;98533.22;5069886;28;19916;-78
2021/08/07 09:31:06;;;;;;;;;;;;;;;29.77;28.63;98535.94;5071030;28;19924;-79
2021/08/07 09:33:35;;;;;;;;;;;;;;;29.78;27.78;98526.44;5069859;28;19972;-79
2021/08/07 09:36:01;;;;;;;;;;;;;;;29.80;28.03;98528.81;5070015;28;19925;-79
2021/08/07 09:38:30;;;;;;;;;;;;;;;29.85;28.42;98526.31;5069782;28;19917;-79
2021/08/07 09:40:57;;;;;;;;;;;;;;;29.83;28.07;98533.47;5071645;28;19956;-79
2021/08/07 09:43:30;;;;;;;;;;;;;;;29.81;28.01;98525.63;5071451;28;19927;-79
2021/08/07 09:45:59;;;;;;;;;;;;;;;29.80;28.17;98534.31;5073979;28;19995;-79
2021/08/07 09:48:29;;;;;;;;;;;;;;;29.79;27.65;98524.47;5073786;28;20295;-79
2021/08/07 09:50:56;;;;;;;;;;;;;;;29.73;27.33;98521.41;5075407;28;19994;-79
2021/08/07 09:53:24;;;;;;;;;;;;;;;29.73;27.38;98526.16;5075482;28;19916;-79
2021/08/07 09:56:03;;;;;;;;;;;;;;;29.79;28.39;98516.97;5074123;28;19920;-81
2021/08/07 09:58:28;;;;;;;;;;;;;;;29.92;28.28;98519.97;5073819;28;19943;-78
2021/08/07 10:00:54;;;;;;;;;;;;;;;30.03;27.66;98523.28;5074373;28;19920;-79
2021/08/07 10:03:23;;;;;;;;;;;;;;;30.14;27.27;98525.88;5074030;28;19920;-79
2021/08/07 10:05:50;;;;;;;;;;;;;;;30.21;27.21;98518.66;5073904;28;19920;-79
2021/08/07 10:08:16;;;;;;;;;;;;;;;30.28;26.62;98516.53;5073997;28;19917;-79
2021/08/07 10:10:42;;;;;;;;;;;;;;;30.35;26.39;98521.91;5073723;28;19924;-79
2021/08/07 10:13:08;;;;;;;;;;;;;;;30.45;25.95;98522.16;5073775;28;19923;-79
2021/08/07 10:15:36;;;;;;;;;;;;;;;30.49;26.11;98517.31;5074588;28;20307;-79
2021/08/07 10:18:01;;;;;;;;;;;;;;;30.58;26.02;98516.78;5073524;28;19991;-79
2021/08/07 10:20:27;;;;;;;;;;;;;;;30.67;26.17;98517.00;5073463;28;20414;-79
2021/08/07 10:22:53;;;;;;;;;;;;;;;30.72;26.15;98524.00;5073728;28;20317;-79
2021/08/07 10:25:19;;;;;;;;;;;;;;;30.76;25.93;98517.22;5074880;28;19959;-79
2021/08/07 10:27:45;;;;;;;;;;;;;;;30.81;25.07;98525.00;5074513;28;19960;-78
2021/08/07 10:30:11;;;;;;;;;;;;;;;30.86;25.08;98531.22;5073448;28;20345;-80
2021/08/07 10:32:40;;;;;;;;;;;;;;;30.93;25.15;98522.78;5073070;28;20386;-79
2021/08/07 10:35:07;;;;;;;;;;;;;;;30.98;24.50;98528.59;5073437;28;19917;-80
2021/08/07 10:37:32;;;;;;;;;;;;;;;31.03;24.46;98532.03;5072933;28;20371;-80
2021/08/07 10:39:57;;;;;;;;;;;;;;;31.08;24.46;98524.06;5073178;28;19923;-79
2021/08/07 10:42:23;;;;;;;;;;;;;;;31.07;24.58;98530.75;5073049;28;20390;-79
2021/08/07 10:44:48;;;;;;;;;;;;;;;31.10;24.75;98529.16;5073015;28;20019;-79
2021/08/07 10:47:14;;;;;;;;;;;;;;;31.12;24.30;98521.22;5074500;28;19917;-79
2021/08/07 10:49:40;;;;;;;;;;;;;;;31.13;24.97;98525.53;5074592;28;19917;-79
2021/08/07 10:52:21;;;;;;;;;;;;;;;31.08;24.20;98524.06;5073041;28;20414;-79
2021/08/07 10:54:50;;;;;;;;;;;;;;;31.03;24.30;98519.03;5073016;28;20446;-79
2021/08/07 10:57:37;;;;;;;;;;;;;;;30.95;24.49;98520.38;5073052;28;19923;-79
2021/08/07 11:00:21;;;;;;;;;;;;;;;31.00;24.84;98525.38;5073037;28;19917;-79
2021/08/07 11:02:47;;;;;;;;;;;;;;;31.04;23.91;98520.59;5074095;28;19916;-80
2021/08/07 11:05:12;;;;;;;;;;;;;;;31.10;23.97;98521.66;5072756;28;20033;-80
2021/08/07 11:07:38;;;;;;;;;;;;;;;31.18;24.08;98513.22;5072300;28;20003;-79
2021/08/07 11:10:06;;;;;;;;;;;;;;;31.21;23.84;98513.09;5072803;28;19927;-79
2021/08/07 11:12:32;;;;;;;;;;;;;;;31.23;23.51;98509.94;5072527;28;19916;-79
2021/08/07 11:15:07;;;;;;;;;;;;;;;31.27;23.55;98511.41;5072642;28;19985;-79
2021/08/07 11:17:34;;;;;;;;;;;;;;;31.35;22.67;98511.22;5073710;28;19927;-79
2021/08/07 11:20:08;;;;;;;;;;;;;;;31.30;22.48;98509.78;5072446;28;19916;-79
2021/08/07 11:22:43;;;;;;;;;;;;;;;31.20;22.59;98510.78;5073655;28;20411;-78
2021/08/07 11:25:14;;;;;;;;;;;;;;;31.13;23.49;98512.50;5073915;28;19951;-79
2021/08/07 11:28:04;;;;;;;;;;;;;;;31.18;23.46;98513.97;5073648;28;19928;-78
2021/08/07 11:30:33;;;;;;;;;;;;;;;31.22;23.05;98503.63;5073689;28;19917;-78
2021/08/07 11:32:59;;;;;;;;;;;;;;;31.29;23.14;98514.50;5074122;28;20003;-78
2021/08/07 11:35:33;;;;;;;;;;;;;;;31.35;23.15;98517.53;5073705;28;20468;-79
2021/08/07 11:38:13;;;;;;;;;;;;;;;31.42;22.93;98516.59;5072114;28;19917;-78
2021/08/07 11:40:41;;;;;;;;;;;;;;;31.41;22.67;98507.53;5073683;28;20291;-78
2021/08/07 11:43:12;;;;;;;;;;;;;;;31.35;23.44;98509.25;5073712;28;19923;-79
2021/08/07 11:45:38;;;;;;;;;;;;;;;31.40;23.69;98496.91;5071652;28;19963;-79
2021/08/07 11:48:03;;;;;;;;;;;;;;;31.42;24.02;98500.00;5071803;28;19956;-80
2021/08/07 11:50:28;;;;;;;;;;;;;;;31.44;23.73;98498.38;5071881;28;20014;-79
2021/08/07 11:52:54;;;;;;;;;;;;;;;31.42;23.29;98497.25;5071593;28;19917;-78
2021/08/07 11:55:19;;;;;;;;;;;;;;;31.39;24.06;98498.88;5073150;28;19962;-79
2021/08/07 11:57:44;;;;;;;;;;;;;;;31.35;23.85;98500.16;5071542;28;19920;-79
2021/08/07 12:00:23;;;;;;;;;;;;;;;31.38;24.34;98496.56;5071893;28;19966;-78
2021/08/07 12:02:59;;;;;;;;;;;;;;;31.40;23.64;98496.91;5073206;28;19920;-79
2021/08/07 12:05:24;;;;;;;;;;;;;;;31.38;24.38;98500.09;5071645;28;19917;-79
2021/08/07 12:08:04;;;;;;;;;;;;;;;31.45;24.04;98493.63;5071436;28;19924;-79
2021/08/07 12:10:29;;;;;;;;;;;;;;;31.49;24.04;98502.59;5072756;28;20391;-79
2021/08/07 12:12:54;;;;;;;;;;;;;;;31.58;23.95;98500.03;5073005;28;19917;-79
2021/08/07 12:15:20;;;;;;;;;;;;;;;31.61;23.01;98501.13;5071634;28;19943;-78
2021/08/07 12:17:46;;;;;;;;;;;;;;;31.65;23.00;98495.56;5071189;28;19923;-79
2021/08/07 12:20:11;;;;;;;;;;;;;;;31.70;23.35;98498.56;5071454;28;19965;-79
2021/08/07 12:23:15;;;;;;;;;;;;;;;31.74;22.82;98495.72;5071044;28;19924;-79
2021/08/07 12:25:43;;;;;;;;;;;;;;;31.77;22.75;98489.31;5029865;28;20024;-79
2021/08/07 12:28:16;;;;;;;;;;;;;;;31.82;22.73;98474.97;5029711;28;19928;-81
2021/08/07 12:30:55;;;;;;;;;;;;;;;31.82;22.32;98491.53;5042232;28;20353;-78
2021/08/07 12:33:22;;;;;;;;;;;;;;;31.75;22.22;98494.50;5071275;28;19924;-78
2021/08/07 12:35:47;;;;;;;;;;;;;;;31.74;21.76;98488.19;5070983;28;19916;-79
2021/08/07 12:38:14;;;;;;;;;;;;;;;31.76;22.14;98487.75;5071050;28;19928;-79
2021/08/07 12:40:40;;;;;;;;;;;;;;;31.78;23.02;98474.28;5070870;28;20395;-79
2021/08/07 12:43:05;;;;;;;;;;;;;;;31.82;22.89;98472.19;5071008;28;20021;-79
2021/08/07 12:45:30;;;;;;;;;;;;;;;31.83;22.61;98473.00;5070894;28;19923;-78